createdAt,value
2018-06-16T00:00:03.266Z,15.63
2018-06-16T00:02:31.766Z,17.00
2018-06-16T00:05:00.249Z,14.20
2018-06-16T00:07:28.748Z,12.80
2018-06-16T00:09:57.208Z,15.17
2018-06-16T00:12:25.666Z,13.87
2018-06-16T00:14:54.140Z,16.90
2018-06-16T00:17:22.537Z,17.03
2018-06-16T00:19:50.982Z,13.70
2018-06-16T00:22:19.596Z,18.70
2018-06-16T00:24:48.002Z,13.77
2018-06-16T00:27:16.504Z,14.23
2018-06-16T00:29:44.985Z,17.43
2018-06-16T00:32:13.393Z,15.40
2018-06-16T00:34:41.803Z,14.73
2018-06-16T00:37:10.237Z,14.83
2018-06-16T00:39:38.726Z,15.63
2018-06-16T00:42:06.867Z,18.07
2018-06-16T00:44:35.456Z,21.40
2018-06-16T00:47:03.898Z,18.10
2018-06-16T00:49:32.409Z,16.93
2018-06-16T00:52:00.902Z,17.07
2018-06-16T00:54:30.422Z,16.80
2018-06-16T00:57:10.377Z,16.03
2018-06-16T00:59:38.792Z,17.37
2018-06-16T01:02:07.233Z,17.00
2018-06-16T01:04:35.678Z,16.20
2018-06-16T01:07:04.285Z,19.80
2018-06-16T01:09:32.757Z,16.60
2018-06-16T01:12:01.386Z,15.13
2018-06-16T01:14:29.874Z,16.57
2018-06-16T01:16:58.328Z,18.70
2018-06-16T01:19:26.858Z,18.17
2018-06-16T01:21:55.260Z,18.50
2018-06-16T01:24:23.710Z,16.47
2018-06-16T01:26:52.125Z,16.20
2018-06-16T01:29:20.636Z,16.20
2018-06-16T01:31:49.152Z,20.77
2018-06-16T01:34:17.677Z,16.00
2018-06-16T01:36:46.099Z,17.00
2018-06-16T01:39:14.548Z,16.30
2018-06-16T01:41:42.891Z,18.93
2018-06-16T01:44:11.263Z,15.50
2018-06-16T01:46:39.654Z,18.10
2018-06-16T01:49:08.094Z,16.90
2018-06-16T01:51:36.534Z,16.50
2018-06-16T01:54:04.943Z,17.63
2018-06-16T01:56:33.389Z,16.73
2018-06-16T01:59:01.813Z,17.43
2018-06-16T02:01:30.216Z,23.03
2018-06-16T02:03:58.655Z,20.37
2018-06-16T02:06:27.204Z,18.03
2018-06-16T02:08:55.539Z,18.37
2018-06-16T02:11:23.914Z,17.83
2018-06-16T02:13:52.543Z,20.73
2018-06-16T02:16:20.995Z,18.83
2018-06-16T02:18:49.436Z,20.47
2018-06-16T02:21:18.004Z,23.03
2018-06-16T02:23:46.369Z,20.03
2018-06-16T02:26:14.788Z,24.13
2018-06-16T02:28:43.160Z,22.60
2018-06-16T02:31:11.525Z,22.10
2018-06-16T02:33:39.933Z,21.53
2018-06-16T02:36:08.405Z,20.70
2018-06-16T02:38:36.837Z,20.03
2018-06-16T02:41:05.358Z,21.07
2018-06-16T02:43:33.741Z,22.23
2018-06-16T02:46:02.284Z,24.10
2018-06-16T02:48:30.735Z,20.10
2018-06-16T02:50:59.104Z,20.93
2018-06-16T02:53:27.532Z,32.50
2018-06-16T02:55:56.104Z,23.10
2018-06-16T02:58:24.540Z,21.70
2018-06-16T03:00:52.949Z,20.77
2018-06-16T03:03:21.383Z,20.83
2018-06-16T03:05:49.797Z,21.53
2018-06-16T03:08:18.197Z,23.97
2018-06-16T03:10:46.657Z,22.20
2018-06-16T03:13:15.137Z,22.83
2018-06-16T03:15:43.532Z,22.30
2018-06-16T03:18:11.969Z,23.17
2018-06-16T03:20:40.533Z,20.20
2018-06-16T03:23:09.104Z,22.30
2018-06-16T03:25:37.540Z,20.97
2018-06-16T03:28:06.060Z,25.37
2018-06-16T03:30:34.511Z,22.83
2018-06-16T03:33:02.940Z,22.83
2018-06-16T03:35:31.425Z,19.93
2018-06-16T03:37:59.937Z,20.63
2018-06-16T03:40:28.334Z,23.10
2018-06-16T03:42:56.776Z,21.37
2018-06-16T03:45:25.183Z,19.93
2018-06-16T03:47:53.571Z,19.30
2018-06-16T03:50:22.028Z,20.10
2018-06-16T03:52:50.714Z,19.57
2018-06-16T03:55:19.154Z,19.10
2018-06-16T03:57:47.646Z,20.93
2018-06-16T04:00:16.088Z,21.50
2018-06-16T04:02:44.530Z,20.47
2018-06-16T04:05:12.697Z,20.03
2018-06-16T04:07:41.138Z,19.70
2018-06-16T04:10:09.633Z,21.47
2018-06-16T04:12:38.048Z,25.00
2018-06-16T04:15:06.465Z,20.67
2018-06-16T04:17:34.884Z,22.00
2018-06-16T04:20:03.415Z,22.13
2018-06-16T04:22:31.907Z,21.23
2018-06-16T04:25:00.294Z,21.43
2018-06-16T04:27:28.668Z,22.53
2018-06-16T04:29:57.076Z,26.60
2018-06-16T04:32:25.474Z,21.60
2018-06-16T04:34:53.961Z,26.17
2018-06-16T04:37:22.308Z,24.67
2018-06-16T04:39:50.750Z,23.53
2018-06-16T04:42:19.142Z,23.77
2018-06-16T04:44:47.517Z,23.17
2018-06-16T04:47:15.933Z,21.60
2018-06-16T04:49:44.354Z,23.30
2018-06-16T04:52:12.753Z,21.60
2018-06-16T04:54:41.150Z,25.23
2018-06-16T04:57:09.608Z,22.33
2018-06-16T04:59:37.991Z,22.50
2018-06-16T05:02:06.852Z,22.90
2018-06-16T05:04:34.936Z,21.80
2018-06-16T05:07:03.355Z,24.50
2018-06-16T05:09:31.740Z,27.40
2018-06-16T05:12:00.193Z,21.93
2018-06-16T05:14:28.580Z,23.17
2018-06-16T05:16:57.040Z,23.87
2018-06-16T05:19:25.442Z,24.20
2018-06-16T05:21:53.915Z,24.40
2018-06-16T05:24:22.392Z,32.73
2018-06-16T05:26:50.875Z,22.33
2018-06-16T05:29:19.281Z,25.00
2018-06-16T05:31:47.668Z,26.00
2018-06-16T05:34:16.041Z,27.43
2018-06-16T05:36:44.478Z,21.63
2018-06-16T05:39:12.853Z,22.07
2018-06-16T05:41:41.299Z,22.30
2018-06-16T05:44:09.681Z,26.83
2018-06-16T05:46:38.139Z,25.93
2018-06-16T05:49:06.563Z,21.90
2018-06-16T05:51:34.944Z,21.10
2018-06-16T05:54:03.418Z,21.00
2018-06-16T05:56:31.867Z,22.43
2018-06-16T05:59:00.221Z,22.27
2018-06-16T06:01:28.701Z,21.17
2018-06-16T06:03:57.209Z,19.90
2018-06-16T06:06:25.689Z,19.90
2018-06-16T06:08:54.205Z,21.17
2018-06-16T06:11:22.997Z,20.37
2018-06-16T06:13:51.564Z,25.00
2018-06-16T06:16:20.005Z,19.37
2018-06-16T06:18:48.404Z,19.30
2018-06-16T06:21:16.863Z,20.90
2018-06-16T06:23:45.303Z,23.67
2018-06-16T06:26:13.810Z,20.50
2018-06-16T06:28:42.352Z,20.77
2018-06-16T06:31:10.956Z,27.40
2018-06-16T06:33:39.309Z,19.13
2018-06-16T06:36:08.024Z,18.53
2018-06-16T06:38:36.775Z,20.63
2018-06-16T06:41:05.702Z,21.50
2018-06-16T06:43:34.456Z,19.47
2018-06-16T06:46:03.189Z,20.27
2018-06-16T06:48:31.712Z,23.90
2018-06-16T06:51:00.245Z,29.93
2018-06-16T06:53:29.068Z,23.50
2018-06-16T06:55:57.744Z,17.60
2018-06-16T06:58:26.181Z,17.57
2018-06-16T07:00:54.701Z,16.60
2018-06-16T07:03:23.286Z,17.90
2018-06-16T07:05:51.759Z,18.23
2018-06-16T07:08:20.300Z,18.47
2018-06-16T07:10:48.816Z,17.03
2018-06-16T07:13:17.290Z,16.47
2018-06-16T07:15:45.735Z,17.30
2018-06-16T07:18:14.262Z,15.27
2018-06-16T07:20:43.000Z,17.40
2018-06-16T07:23:11.544Z,16.93
2018-06-16T07:25:40.219Z,18.73
2018-06-16T07:28:08.936Z,17.53
2018-06-16T07:30:37.553Z,19.00
2018-06-16T07:33:06.299Z,17.80
2018-06-16T07:35:34.934Z,18.53
2018-06-16T07:38:03.524Z,17.97
2018-06-16T07:40:32.220Z,18.53
2018-06-16T07:43:00.764Z,18.50
2018-06-16T07:45:29.297Z,21.63
2018-06-16T07:47:57.895Z,17.50
2018-06-16T07:50:26.635Z,18.80
2018-06-16T07:52:55.108Z,17.73
2018-06-16T07:55:23.360Z,16.50
2018-06-16T07:57:51.824Z,19.73
2018-06-16T08:00:21.489Z,16.40
2018-06-16T08:02:50.033Z,16.70
2018-06-16T08:05:18.435Z,16.10
2018-06-16T08:07:46.963Z,16.17
2018-06-16T08:10:15.412Z,17.37
2018-06-16T08:12:43.878Z,15.20
2018-06-16T08:15:12.358Z,18.83
2018-06-16T08:17:40.809Z,17.53
2018-06-16T08:20:09.350Z,17.87
2018-06-16T08:22:37.834Z,19.20
2018-06-16T08:25:06.187Z,16.97
2018-06-16T08:27:34.776Z,17.50
2018-06-16T08:30:03.298Z,16.43
2018-06-16T08:32:31.711Z,17.73
2018-06-16T08:35:00.175Z,17.10
2018-06-16T08:37:28.542Z,16.60
2018-06-16T08:39:56.981Z,17.20
2018-06-16T08:42:25.389Z,14.33
2018-06-16T08:44:53.745Z,15.43
2018-06-16T08:47:22.144Z,15.10
2018-06-16T08:49:50.506Z,13.23
2018-06-16T08:52:18.960Z,14.87
2018-06-16T08:54:47.352Z,13.80
2018-06-16T08:57:15.772Z,13.40
2018-06-16T08:59:44.194Z,16.77
2018-06-16T09:02:12.633Z,16.60
2018-06-16T09:04:41.089Z,16.63
2018-06-16T09:07:09.501Z,18.23
2018-06-16T09:09:37.925Z,16.47
2018-06-16T09:12:06.456Z,17.40
2018-06-16T09:14:34.825Z,18.00
2018-06-16T09:17:03.208Z,17.03
2018-06-16T09:19:31.567Z,19.17
2018-06-16T09:21:59.987Z,15.87
2018-06-16T09:24:28.368Z,17.40
2018-06-16T09:26:56.764Z,13.93
2018-06-16T09:29:25.316Z,17.17
2018-06-16T09:31:53.747Z,12.53
2018-06-16T09:34:22.177Z,12.50
2018-06-16T09:36:50.540Z,17.63
2018-06-16T09:39:19.118Z,19.00
2018-06-16T09:41:47.522Z,14.40
2018-06-16T09:44:16.025Z,14.93
2018-06-16T09:46:44.528Z,13.47
2018-06-16T09:49:12.945Z,13.43
2018-06-16T09:51:41.317Z,12.50
2018-06-16T09:54:09.708Z,13.53
2018-06-16T09:56:38.155Z,13.47
2018-06-16T09:59:06.499Z,14.43
2018-06-16T10:01:34.894Z,14.23
2018-06-16T10:04:03.275Z,12.80
2018-06-16T10:06:31.673Z,13.23
2018-06-16T10:09:00.087Z,12.77
2018-06-16T10:11:28.504Z,13.17
2018-06-16T10:13:56.912Z,12.57
2018-06-16T10:16:25.420Z,11.97
2018-06-16T10:18:53.737Z,11.00
2018-06-16T10:21:22.164Z,13.43
2018-06-16T10:23:50.612Z,11.10
2018-06-16T10:26:18.745Z,10.97
2018-06-16T10:28:47.121Z,11.97
2018-06-16T10:31:15.592Z,9.40
2018-06-16T10:33:43.976Z,9.77
2018-06-16T10:36:12.383Z,9.83
2018-06-16T10:38:40.749Z,8.30
2018-06-16T10:41:09.131Z,7.63
2018-06-16T10:43:37.774Z,7.80
2018-06-16T10:46:06.204Z,7.67
2018-06-16T10:48:34.676Z,7.63
2018-06-16T10:51:03.066Z,7.43
2018-06-16T10:53:31.393Z,6.33
2018-06-16T10:55:59.832Z,5.67
2018-06-16T10:58:28.183Z,5.50
2018-06-16T11:00:56.583Z,6.17
2018-06-16T11:03:25.004Z,4.80
2018-06-16T11:05:53.521Z,4.73
2018-06-16T11:08:21.957Z,4.97
2018-06-16T11:10:50.338Z,5.13
2018-06-16T11:13:18.434Z,4.93
2018-06-16T11:15:46.845Z,5.63
2018-06-16T11:18:15.213Z,5.40
2018-06-16T11:20:43.696Z,6.73
2018-06-16T11:23:12.104Z,5.97
2018-06-16T11:25:40.517Z,4.90
2018-06-16T11:28:08.987Z,5.83
2018-06-16T11:30:37.455Z,5.60
2018-06-16T11:33:06.318Z,6.33
2018-06-16T11:35:34.711Z,6.07
2018-06-16T11:38:03.120Z,6.37
2018-06-16T11:40:31.579Z,6.60
2018-06-16T11:43:00.049Z,6.67
2018-06-16T11:45:28.477Z,6.80
2018-06-16T11:47:56.958Z,6.77
2018-06-16T11:50:25.325Z,6.50
2018-06-16T11:52:53.795Z,7.23
2018-06-16T11:55:22.241Z,6.90
2018-06-16T11:57:50.652Z,9.57
2018-06-16T12:00:19.076Z,7.37
2018-06-16T12:02:47.506Z,7.40
2018-06-16T12:05:15.904Z,14.10
2018-06-16T12:07:44.342Z,19.77
2018-06-16T12:10:12.816Z,7.87
2018-06-16T12:12:41.206Z,7.33
2018-06-16T12:15:09.624Z,9.00
2018-06-16T12:17:38.053Z,6.97
2018-06-16T12:20:06.587Z,9.07
2018-06-16T12:22:35.038Z,7.57
2018-06-16T12:25:03.477Z,6.83
2018-06-16T12:27:31.935Z,6.87
2018-06-16T12:30:00.316Z,20.87
2018-06-16T12:32:28.801Z,13.33
2018-06-16T12:34:57.203Z,7.07
2018-06-16T12:37:25.597Z,12.67
2018-06-16T12:39:54.026Z,7.30
2018-06-16T12:42:22.408Z,8.93
2018-06-16T12:44:50.848Z,7.70
2018-06-16T12:47:19.373Z,7.33
2018-06-16T12:49:47.734Z,7.13
2018-06-16T12:52:16.269Z,7.20
2018-06-16T12:54:44.635Z,7.00
2018-06-16T12:57:13.217Z,7.53
2018-06-16T12:59:41.581Z,8.40
2018-06-16T13:02:09.939Z,8.60
2018-06-16T13:04:38.350Z,8.03
2018-06-16T13:07:06.786Z,8.40
2018-06-16T13:09:35.305Z,8.17
2018-06-16T13:12:03.664Z,8.27
2018-06-16T13:14:32.106Z,7.87
2018-06-16T13:17:00.496Z,8.33
2018-06-16T13:19:29.033Z,8.93
2018-06-16T13:21:57.541Z,8.40
2018-06-16T13:24:26.019Z,8.60
2018-06-16T13:26:54.461Z,7.77
2018-06-16T13:29:22.903Z,7.10
2018-06-16T13:31:51.526Z,6.70
2018-06-16T13:34:21.408Z,7.37
2018-06-16T13:36:50.142Z,5.87
2018-06-16T13:39:19.505Z,6.00
2018-06-16T13:41:49.682Z,5.20
2018-06-16T13:44:18.313Z,6.07
2018-06-16T13:46:46.726Z,5.20
2018-06-16T13:49:15.201Z,5.03
2018-06-16T13:51:43.604Z,4.97
2018-06-16T13:54:12.354Z,4.50
2018-06-16T13:56:40.828Z,5.20
2018-06-16T13:59:09.408Z,4.73
2018-06-16T14:01:37.793Z,4.77
2018-06-16T14:05:54.726Z,5.93
2018-06-16T14:08:23.224Z,5.00
2018-06-16T14:10:51.680Z,4.93
2018-06-16T14:13:20.106Z,5.43
2018-06-16T14:15:48.476Z,4.57
2018-06-16T14:18:17.015Z,5.17
2018-06-16T14:20:45.504Z,5.10
2018-06-16T14:23:13.928Z,4.20
2018-06-16T14:25:42.435Z,23.87
2018-06-16T14:28:11.472Z,22.97
2018-06-16T14:30:40.290Z,40.63
2018-06-16T14:33:08.779Z,4.40
2018-06-16T14:35:37.130Z,4.43
2018-06-16T14:38:05.736Z,10.50
2018-06-16T14:40:34.247Z,6.93
2018-06-16T14:43:02.793Z,3.47
2018-06-16T14:45:31.331Z,8.70
2018-06-16T14:47:59.731Z,15.83
2018-06-16T14:50:28.197Z,3.03
2018-06-16T14:52:56.712Z,2.77
2018-06-16T14:55:25.118Z,3.03
2018-06-16T14:57:53.493Z,2.23
2018-06-16T15:00:21.898Z,1.87
2018-06-16T15:02:50.287Z,2.27
2018-06-16T15:05:18.733Z,2.50
2018-06-16T15:07:47.185Z,2.20
2018-06-16T15:10:15.593Z,2.80
2018-06-16T15:12:43.976Z,10.43
2018-06-16T15:15:12.378Z,11.37
2018-06-16T15:17:40.798Z,3.77
2018-06-16T15:20:09.248Z,3.53
2018-06-16T15:22:37.757Z,3.90
2018-06-16T15:25:06.417Z,4.47
2018-06-16T15:27:34.812Z,4.47
2018-06-16T15:30:03.321Z,4.63
2018-06-16T15:32:31.693Z,4.93
2018-06-16T15:35:00.105Z,5.40
2018-06-16T15:37:28.492Z,5.20
2018-06-16T15:39:56.880Z,4.90
2018-06-16T15:42:25.370Z,4.53
2018-06-16T15:44:53.737Z,4.67
2018-06-16T15:47:22.233Z,6.90
2018-06-16T15:49:50.762Z,4.40
2018-06-16T15:52:19.132Z,4.63
2018-06-16T15:54:47.614Z,5.23
2018-06-16T15:57:16.114Z,4.60
2018-06-16T15:59:44.472Z,5.20
2018-06-16T16:02:12.882Z,4.77
2018-06-16T16:04:41.318Z,4.90
2018-06-16T16:07:09.700Z,4.53
2018-06-16T16:09:38.052Z,5.03
2018-06-16T16:12:06.465Z,5.47
2018-06-16T16:14:34.900Z,4.70
2018-06-16T16:17:03.277Z,5.67
2018-06-16T16:19:31.708Z,6.97
2018-06-16T16:22:00.189Z,3.90
2018-06-16T16:24:28.593Z,6.00
2018-06-16T16:26:57.024Z,4.37
2018-06-16T16:29:25.381Z,4.07
2018-06-16T16:31:54.006Z,3.93
2018-06-16T16:34:22.668Z,3.67
2018-06-16T16:36:51.082Z,3.57
2018-06-16T16:39:19.628Z,4.00
2018-06-16T16:41:48.036Z,4.50
2018-06-16T16:44:16.474Z,4.93
2018-06-16T16:46:45.989Z,4.93
2018-06-16T16:49:14.480Z,4.90
2018-06-16T16:51:43.058Z,5.40
2018-06-16T16:54:11.657Z,4.60
2018-06-16T16:56:40.306Z,4.80
2018-06-16T16:59:08.886Z,5.43
2018-06-16T17:01:37.417Z,7.13
2018-06-16T17:04:06.009Z,7.40
2018-06-16T17:06:34.509Z,7.33
2018-06-16T17:09:04.568Z,7.50
2018-06-16T17:11:32.953Z,7.53
2018-06-16T17:14:02.059Z,11.63
2018-06-16T17:16:30.462Z,8.90
2018-06-16T17:18:58.939Z,9.20
2018-06-16T17:21:27.574Z,8.63
2018-06-16T17:23:56.040Z,8.30
2018-06-16T17:26:24.561Z,7.60
2018-06-16T17:28:53.128Z,7.37
2018-06-16T17:31:21.647Z,8.27
2018-06-16T17:33:50.097Z,7.60
2018-06-16T17:36:18.615Z,8.83
2018-06-16T17:38:47.044Z,8.33
2018-06-16T17:41:15.513Z,8.53
2018-06-16T17:43:44.080Z,8.67
2018-06-16T17:46:13.325Z,9.17
2018-06-16T17:48:42.650Z,12.57
2018-06-16T17:51:11.428Z,11.77
2018-06-16T17:53:40.482Z,9.70
2018-06-16T17:56:10.125Z,10.53
2018-06-16T17:58:38.769Z,8.50
2018-06-16T18:01:07.506Z,8.70
2018-06-16T18:03:36.169Z,8.60
2018-06-16T18:06:05.121Z,8.00
2018-06-16T18:08:34.091Z,11.60
2018-06-16T18:11:03.320Z,8.27
2018-06-16T18:13:32.745Z,7.63
2018-06-16T18:16:02.103Z,7.83
2018-06-16T18:18:32.465Z,8.33
2018-06-16T18:21:02.105Z,8.07
2018-06-16T18:26:09.597Z,7.97
2018-06-16T18:28:38.018Z,8.10
2018-06-16T18:31:06.719Z,7.73
2018-06-16T18:33:35.253Z,6.97
2018-06-16T18:36:08.231Z,8.23
2018-06-16T18:38:37.508Z,7.13
2018-06-16T18:41:06.845Z,7.60
2018-06-16T18:43:36.244Z,8.57
2018-06-16T18:46:05.583Z,7.87
2018-06-16T18:48:34.352Z,7.83
2018-06-16T18:51:02.896Z,8.37
2018-06-16T18:53:31.593Z,8.00
2018-06-16T18:56:00.673Z,7.90
2018-06-16T18:58:29.854Z,8.13
2018-06-16T19:00:59.657Z,8.50
2018-06-16T19:03:29.126Z,9.20
2018-06-16T19:05:58.500Z,10.73
2018-06-16T19:08:27.729Z,10.07
2018-06-16T19:10:56.932Z,9.60
2018-06-16T19:13:25.722Z,11.53
2018-06-16T19:15:56.283Z,9.57
2018-06-16T19:18:25.023Z,9.27
2018-06-16T19:20:53.942Z,9.70
2018-06-16T19:23:23.276Z,9.90
2018-06-16T19:25:52.576Z,11.17
2018-06-16T19:28:21.973Z,10.37
2018-06-16T19:30:51.247Z,11.00
2018-06-16T19:33:20.464Z,10.77
2018-06-16T19:35:49.794Z,10.70
2018-06-16T19:38:19.107Z,11.27
2018-06-16T19:40:49.568Z,11.07
2018-06-16T19:43:18.947Z,11.37
2018-06-16T19:45:48.213Z,11.27
2018-06-16T19:48:17.520Z,11.27
2018-06-16T19:50:46.322Z,10.90
2018-06-16T19:53:15.040Z,11.50
2018-06-16T19:55:51.449Z,13.00
2018-06-16T19:58:20.466Z,12.27
2018-06-16T20:00:49.292Z,12.77
2018-06-16T20:03:20.108Z,12.77
2018-06-16T20:05:49.963Z,14.17
2018-06-16T20:08:18.824Z,13.30
2018-06-16T20:10:47.762Z,13.37
2018-06-16T20:13:16.899Z,14.07
2018-06-16T20:15:45.221Z,13.50
2018-06-16T20:18:14.234Z,14.23
2018-06-16T20:20:43.248Z,14.10
2018-06-16T20:23:12.827Z,18.73
2018-06-16T20:25:41.601Z,13.37
2018-06-16T20:28:10.505Z,13.77
2018-06-16T20:30:39.442Z,15.00
2018-06-16T20:33:08.386Z,15.77
2018-06-16T20:35:37.148Z,17.10
2018-06-16T20:38:05.744Z,15.60
2018-06-16T20:40:34.345Z,17.07
2018-06-16T20:43:03.063Z,15.67
2018-06-16T20:45:31.688Z,14.87
2018-06-16T20:48:00.280Z,14.30
2018-06-16T20:50:28.670Z,16.10
2018-06-16T20:52:57.218Z,15.87
2018-06-16T20:55:25.810Z,14.73
2018-06-16T20:57:54.309Z,15.80
2018-06-16T21:00:22.942Z,16.70
2018-06-16T21:02:51.577Z,17.23
2018-06-16T21:05:20.202Z,21.17
2018-06-16T21:07:48.714Z,21.90
2018-06-16T21:10:16.917Z,14.30
2018-06-16T21:12:45.506Z,14.07
2018-06-16T21:15:14.108Z,12.97
2018-06-16T21:17:42.733Z,17.03
2018-06-16T21:20:11.181Z,46.73
2018-06-16T21:22:39.726Z,29.40
2018-06-16T21:25:08.182Z,20.83
2018-06-16T21:27:36.597Z,12.47
2018-06-16T21:30:05.454Z,11.93
2018-06-16T21:32:33.936Z,11.50
2018-06-16T21:35:02.105Z,11.40
2018-06-16T21:37:30.544Z,10.57
2018-06-16T21:39:59.048Z,10.50
2018-06-16T21:42:27.441Z,9.60
2018-06-16T21:44:56.033Z,9.93
2018-06-16T21:47:24.208Z,18.10
2018-06-16T21:49:52.721Z,9.90
2018-06-16T21:52:21.225Z,9.30
2018-06-16T21:54:49.876Z,9.50
2018-06-16T21:57:18.404Z,9.40
2018-06-16T21:59:47.193Z,8.70
2018-06-16T22:02:15.654Z,9.67
2018-06-16T22:04:44.298Z,8.93
2018-06-16T22:07:12.773Z,8.50
2018-06-16T22:09:41.233Z,8.70
2018-06-16T22:12:09.692Z,9.93
2018-06-16T22:14:38.185Z,8.63
2018-06-16T22:17:06.669Z,8.83
2018-06-16T22:19:35.133Z,9.10
2018-06-16T22:22:03.593Z,11.70
2018-06-16T22:24:32.055Z,10.00
2018-06-16T22:27:00.535Z,14.70
2018-06-16T22:29:28.969Z,12.17
2018-06-16T22:31:57.443Z,12.47
2018-06-16T22:34:25.881Z,12.80
2018-06-16T22:36:54.342Z,12.23
2018-06-16T22:39:22.832Z,12.27
2018-06-16T22:41:51.281Z,12.13
2018-06-16T22:44:19.685Z,14.40
2018-06-16T22:46:48.171Z,11.73
2018-06-16T22:49:16.608Z,10.57
2018-06-16T22:51:45.042Z,11.20
2018-06-16T22:54:13.481Z,10.67
2018-06-16T22:56:41.949Z,9.60
2018-06-16T22:59:10.433Z,9.70
2018-06-16T23:01:38.977Z,10.63
2018-06-16T23:04:07.478Z,9.83
2018-06-16T23:06:35.958Z,9.93
2018-06-16T23:09:06.462Z,13.40
2018-06-16T23:11:34.889Z,12.63
2018-06-16T23:14:03.348Z,13.87
2018-06-16T23:16:31.846Z,10.43
2018-06-16T23:19:00.339Z,10.70
2018-06-16T23:21:28.816Z,10.40
2018-06-16T23:23:57.317Z,11.53
2018-06-16T23:26:25.805Z,12.03
2018-06-16T23:28:54.296Z,13.83
2018-06-16T23:31:22.743Z,11.17
2018-06-16T23:33:51.198Z,9.97
2018-06-16T23:36:19.701Z,12.47
2018-06-16T23:38:48.254Z,10.93
2018-06-16T23:41:16.726Z,17.50
2018-06-16T23:43:45.205Z,10.93
2018-06-16T23:46:13.730Z,10.50
2018-06-16T23:48:42.297Z,9.80
2018-06-16T23:51:10.869Z,8.37
2018-06-16T23:53:39.409Z,14.37
2018-06-16T23:56:07.899Z,8.50
2018-06-16T23:58:36.437Z,8.47
